Time;durP1;ratioP1;P1;durP2;ratioP2;P2;SDS_P1;SDS_P2;PMS_P1;PMS_P2;Temp;Humidity;BMP_temperature;BMP_pressure;BME280_temperature;BME280_humidity;BME280_pressure;Samples;Min_cycle;Max_cycle;Signal;HPM_P1;HPM_P2
2022/10/11 00:02:42;;;;;;;5.67;3.73;;;12.30;1.00;;;;;;6337669;27;20489;-53
2022/10/11 00:05:45;;;;;;;4.00;3.27;;;12.30;1.00;;;;;;6331367;27;20231;-55
2022/10/11 00:08:48;;;;;;;3.40;3.10;;;12.20;1.00;;;;;;6322078;27;20250;-54
2022/10/11 00:11:51;;;;;;;4.23;3.20;;;12.10;1.00;;;;;;6327918;27;20224;-58
2022/10/11 00:14:55;;;;;;;8.87;3.60;;;12.00;1.00;;;;;;6331213;28;20338;-55
2022/10/11 00:17:58;;;;;;;3.17;3.00;;;12.00;1.00;;;;;;6335860;28;20259;-54
2022/10/11 00:21:10;;;;;;;3.90;3.57;;;11.90;1.00;;;;;;6311976;28;20433;-54
2022/10/11 00:24:15;;;;;;;3.90;3.30;;;11.90;1.00;;;;;;6311210;28;20224;-55
2022/10/11 00:27:18;;;;;;;5.13;3.07;;;11.80;1.00;;;;;;6335044;27;20239;-54
2022/10/11 00:30:22;;;;;;;7.03;3.53;;;11.80;1.00;;;;;;6331019;27;20236;-54
2022/10/11 00:33:25;;;;;;;3.93;3.63;;;11.70;1.00;;;;;;6335439;27;20232;-55
2022/10/11 00:36:28;;;;;;;5.17;3.20;;;11.60;1.00;;;;;;6332775;27;20228;-53
2022/10/11 00:39:32;;;;;;;3.37;3.20;;;11.60;1.00;;;;;;6332996;27;20885;-55
2022/10/11 00:42:35;;;;;;;5.43;3.87;;;11.50;1.00;;;;;;6336571;27;20232;-54
2022/10/11 00:46:02;;;;;;;6.73;3.40;;;11.40;1.00;;;;;;6326914;27;20240;-54
2022/10/11 00:49:13;;;;;;;7.07;3.10;;;11.40;1.00;;;;;;6317316;27;20236;-53
2022/10/11 00:52:22;;;;;;;7.53;4.07;;;11.30;1.00;;;;;;6334565;27;20251;-54
2022/10/11 00:55:30;;;;;;;6.67;3.67;;;11.20;1.00;;;;;;6315180;27;20670;-54
2022/10/11 00:58:34;;;;;;;4.23;3.30;;;11.20;1.00;;;;;;6326914;27;20235;-54
2022/10/11 01:01:39;;;;;;;6.53;3.20;;;11.10;1.00;;;;;;6334510;28;20240;-54
2022/10/11 01:04:42;;;;;;;7.27;3.23;;;11.10;1.00;;;;;;6334287;27;20367;-54
2022/10/11 01:07:47;;;;;;;7.07;3.43;;;11.00;1.00;;;;;;6312302;28;20429;-53
2022/10/11 01:10:50;;;;;;;3.20;3.00;;;11.00;1.00;;;;;;6309019;28;20254;-54
2022/10/11 01:14:10;;;;;;;9.73;3.60;;;10.90;1.00;;;;;;6317414;28;20243;-54
2022/10/11 01:17:21;;;;;;;4.97;3.13;;;10.80;1.00;;;;;;6322478;27;20228;-54
2022/10/11 01:20:35;;;;;;;5.00;3.07;;;10.80;1.00;;;;;;6333670;27;20696;-52
2022/10/11 01:24:09;;;;;;;6.90;3.47;;;10.80;1.00;;;;;;6332152;27;20648;-54
2022/10/11 01:27:41;;;;;;;6.37;3.53;;;10.70;1.00;;;;;;6321856;27;20239;-54
2022/10/11 01:30:46;;;;;;;8.13;3.47;;;10.70;1.00;;;;;;6335004;27;20224;-55
2022/10/11 01:33:54;;;;;;;9.90;4.07;;;10.60;1.00;;;;;;6332563;27;20238;-54
2022/10/11 01:37:03;;;;;;;7.30;3.53;;;10.60;1.00;;;;;;6325277;27;20239;-53
2022/10/11 01:40:11;;;;;;;5.40;3.73;;;10.60;1.00;;;;;;6324753;27;20232;-55
2022/10/11 01:43:15;;;;;;;13.33;3.90;;;10.50;1.00;;;;;;6330267;27;20323;-53
2022/10/11 01:46:20;;;;;;;10.27;3.53;;;10.50;1.00;;;;;;6333589;27;20335;-54
2022/10/11 01:49:23;;;;;;;4.67;3.70;;;10.50;1.00;;;;;;6333790;27;20243;-54
2022/10/11 01:52:28;;;;;;;13.97;3.63;;;10.40;1.00;;;;;;6314398;27;20737;-54
2022/10/11 01:55:40;;;;;;;5.67;3.40;;;10.40;1.00;;;;;;6307609;28;20282;-54
2022/10/11 01:59:00;;;;;;;7.00;3.83;;;10.30;1.00;;;;;;6329673;27;20236;-54
2022/10/11 02:02:14;;;;;;;8.57;3.57;;;10.30;1.00;;;;;;6314527;27;20243;-53
2022/10/11 02:05:23;;;;;;;8.43;3.93;;;10.30;1.00;;;;;;6324801;27;20633;-53
2022/10/11 02:08:35;;;;;;;9.13;3.87;;;10.30;1.00;;;;;;6326719;28;20450;-55
2022/10/11 02:11:38;;;;;;;12.27;4.13;;;10.30;1.00;;;;;;6317091;28;20720;-55
2022/10/11 02:14:45;;;;;;;12.67;4.57;;;10.20;1.00;;;;;;6313157;28;20240;-54
2022/10/11 02:17:54;;;;;;;8.63;3.87;;;10.20;1.00;;;;;;6328002;28;20228;-52
2022/10/11 02:20:59;;;;;;;9.10;4.07;;;10.20;1.00;;;;;;6320268;27;20232;-54
2022/10/11 02:24:07;;;;;;;6.17;3.83;;;10.10;1.00;;;;;;6333618;27;20223;-52
2022/10/11 02:27:11;;;;;;;10.13;3.77;;;10.10;1.00;;;;;;6329761;27;20236;-53
2022/10/11 02:30:15;;;;;;;12.33;3.87;;;10.10;1.00;;;;;;6324268;27;20231;-54
2022/10/11 02:33:24;;;;;;;7.17;3.37;;;10.00;1.00;;;;;;6317212;27;20239;-53
2022/10/11 02:36:36;;;;;;;9.17;3.57;;;10.10;1.00;;;;;;6331244;27;20239;-55
2022/10/11 02:39:45;;;;;;;11.47;4.03;;;10.00;1.00;;;;;;6323270;28;20228;-54
2022/10/11 02:42:53;;;;;;;11.43;3.90;;;10.00;1.00;;;;;;6333480;28;20259;-53
2022/10/11 02:45:58;;;;;;;4.67;3.73;;;9.90;1.00;;;;;;6332636;28;20244;-51
2022/10/11 02:49:03;;;;;;;7.77;4.10;;;9.90;1.00;;;;;;6315676;28;20703;-54
2022/10/11 02:52:06;;;;;;;10.50;3.60;;;9.80;1.00;;;;;;6307530;28;20240;-54
2022/10/11 02:55:11;;;;;;;12.17;4.10;;;9.80;1.00;;;;;;6309463;28;20236;-54
2022/10/11 02:58:14;;;;;;;7.67;3.70;;;9.80;1.00;;;;;;6329636;27;20260;-54
2022/10/11 03:01:17;;;;;;;14.37;4.23;;;9.80;1.00;;;;;;6328638;27;20661;-54
2022/10/11 03:04:21;;;;;;;11.80;3.87;;;9.70;1.00;;;;;;6332235;27;20232;-54
2022/10/11 03:07:24;;;;;;;10.03;4.43;;;9.70;1.00;;;;;;6336996;27;20413;-54
2022/10/11 03:10:26;;;;;;;11.27;4.20;;;9.70;1.00;;;;;;6336327;27;20652;-53
2022/10/11 03:13:29;;;;;;;7.10;4.00;;;9.70;1.00;;;;;;6318877;27;20232;-53
2022/10/11 03:16:32;;;;;;;12.73;4.30;;;9.70;1.00;;;;;;6311457;28;20720;-55
2022/10/11 03:19:36;;;;;;;8.67;3.60;;;9.60;1.00;;;;;;6313657;28;20235;-54
2022/10/11 03:22:39;;;;;;;6.97;3.83;;;9.60;1.00;;;;;;6314103;27;20801;-56
2022/10/11 03:25:42;;;;;;;7.07;4.23;;;9.70;1.00;;;;;;6334874;27;20239;-55
2022/10/11 03:28:45;;;;;;;16.30;5.53;;;9.60;1.00;;;;;;6330258;28;20224;-54
2022/10/11 03:31:48;;;;;;;11.73;4.17;;;9.60;1.00;;;;;;6306062;28;21018;-54
2022/10/11 03:34:52;;;;;;;8.23;4.00;;;9.60;1.00;;;;;;6330197;27;20276;-53
2022/10/11 03:37:55;;;;;;;10.57;3.43;;;9.60;1.00;;;;;;6340458;27;20234;-53
2022/10/11 03:40:58;;;;;;;13.53;4.20;;;9.60;1.00;;;;;;6338469;28;20242;-54
2022/10/11 03:44:00;;;;;;;7.17;3.80;;;9.60;1.00;;;;;;6334142;28;20896;-52
2022/10/11 03:47:03;;;;;;;9.53;3.93;;;9.60;1.00;;;;;;6330015;27;20609;-55
2022/10/11 03:50:09;;;;;;;9.80;4.17;;;9.50;1.00;;;;;;6333471;28;20251;-54
2022/10/11 03:53:12;;;;;;;10.80;4.57;;;9.50;1.00;;;;;;6331835;27;20609;-54
2022/10/11 03:56:15;;;;;;;6.90;4.10;;;9.50;1.00;;;;;;6331509;28;20450;-54
2022/10/11 03:59:18;;;;;;;9.13;4.20;;;9.50;1.00;;;;;;6327562;27;20235;-54
2022/10/11 04:02:21;;;;;;;8.47;4.43;;;9.50;1.00;;;;;;6340850;27;20243;-54
2022/10/11 04:05:25;;;;;;;11.50;4.10;;;9.50;1.00;;;;;;6334532;27;20616;-54
2022/10/11 04:08:28;;;;;;;6.37;4.07;;;9.40;1.00;;;;;;6332571;27;20227;-53
2022/10/11 04:11:30;;;;;;;17.03;4.90;;;9.40;1.00;;;;;;6329017;27;20422;-54
2022/10/11 04:14:33;;;;;;;8.03;4.67;;;9.40;1.00;;;;;;6329842;27;20228;-54
2022/10/11 04:17:36;;;;;;;12.57;4.97;;;9.40;1.00;;;;;;6330360;27;20228;-54
2022/10/11 04:20:40;;;;;;;15.13;4.63;;;9.40;1.00;;;;;;6328275;27;20351;-52
2022/10/11 04:23:43;;;;;;;11.53;4.50;;;9.40;1.00;;;;;;6330377;27;20227;-54
2022/10/11 04:26:46;;;;;;;12.70;5.20;;;9.40;1.00;;;;;;6336595;27;20760;-54
2022/10/11 04:29:48;;;;;;;14.97;5.30;;;9.30;1.00;;;;;;6327516;27;20592;-54
2022/10/11 04:32:51;;;;;;;10.73;4.90;;;9.30;1.00;;;;;;6315959;27;20760;-53
2022/10/11 04:35:55;;;;;;;11.90;4.70;;;9.30;1.00;;;;;;6331523;27;20362;-53
2022/10/11 04:39:00;;;;;;;9.43;4.33;;;9.30;1.00;;;;;;6330527;27;20242;-54
2022/10/11 04:42:03;;;;;;;14.80;4.63;;;9.30;1.00;;;;;;6329312;27;20389;-53
2022/10/11 04:45:08;;;;;;;12.77;4.93;;;9.30;1.00;;;;;;6328188;27;20228;-54
2022/10/11 04:48:11;;;;;;;10.30;4.70;;;9.20;1.00;;;;;;6324353;27;20228;-52
2022/10/11 04:51:15;;;;;;;13.63;5.13;;;9.20;1.00;;;;;;6329477;27;20239;-54
2022/10/11 04:54:18;;;;;;;12.30;5.00;;;9.20;1.00;;;;;;6314887;28;20632;-53
2022/10/11 04:57:20;;;;;;;12.07;5.53;;;9.20;1.00;;;;;;6336853;27;20273;-53
2022/10/11 05:00:23;;;;;;;13.97;5.67;;;9.10;1.00;;;;;;6332433;27;20238;-53
2022/10/11 05:03:27;;;;;;;13.37;5.30;;;9.10;1.00;;;;;;6329374;27;20259;-53
2022/10/11 05:06:31;;;;;;;8.07;5.20;;;9.10;1.00;;;;;;6340554;27;20227;-54
2022/10/11 05:09:34;;;;;;;9.23;5.07;;;9.10;1.00;;;;;;6333681;27;20246;-54
2022/10/11 05:12:37;;;;;;;12.87;5.80;;;9.10;1.00;;;;;;6330704;27;21263;-54
2022/10/11 05:15:39;;;;;;;12.23;5.10;;;9.10;1.00;;;;;;6322331;27;20331;-53
2022/10/11 05:18:42;;;;;;;14.20;5.50;;;9.10;1.00;;;;;;6313061;27;20227;-54
2022/10/11 05:21:47;;;;;;;13.37;5.60;;;9.10;1.00;;;;;;6327554;27;20232;-54
2022/10/11 05:24:49;;;;;;;8.23;5.20;;;9.20;1.00;;;;;;6332373;27;20232;-52
2022/10/11 05:27:52;;;;;;;17.67;5.80;;;9.10;1.00;;;;;;6330810;28;20274;-54
2022/10/11 05:30:55;;;;;;;10.33;5.70;;;9.10;1.00;;;;;;6333540;27;20242;-54
2022/10/11 05:33:58;;;;;;;9.73;5.17;;;9.10;1.00;;;;;;6328329;27;20243;-54
2022/10/11 05:37:02;;;;;;;17.73;5.70;;;9.10;1.00;;;;;;6330080;28;20232;-53
2022/10/11 05:40:07;;;;;;;17.07;6.43;;;9.10;1.00;;;;;;6326838;27;20236;-51
2022/10/11 05:43:10;;;;;;;14.33;6.07;;;9.10;1.00;;;;;;6319569;27;20248;-53
2022/10/11 05:46:13;;;;;;;14.43;5.97;;;9.10;1.00;;;;;;6330842;27;20280;-55
2022/10/11 05:49:16;;;;;;;17.00;5.70;;;9.10;1.00;;;;;;6322124;27;20231;-53
2022/10/11 05:52:20;;;;;;;5.13;4.63;;;9.20;1.00;;;;;;6327481;28;20303;-53
2022/10/11 05:55:23;;;;;;;12.47;5.87;;;9.20;1.00;;;;;;6328545;28;20327;-54
2022/10/11 05:58:26;;;;;;;14.77;6.13;;;9.20;1.00;;;;;;6331860;27;20254;-53
2022/10/11 06:01:29;;;;;;;12.17;6.27;;;9.30;1.00;;;;;;6334715;27;20631;-53
2022/10/11 06:04:36;;;;;;;12.10;5.83;;;9.30;1.00;;;;;;6319423;27;20616;-53
2022/10/11 06:07:40;;;;;;;14.00;6.13;;;9.30;1.00;;;;;;6327321;28;20224;-53
2022/10/11 06:10:43;;;;;;;12.27;5.80;;;9.30;1.00;;;;;;6329698;27;20228;-54
2022/10/11 06:13:47;;;;;;;14.67;6.00;;;9.40;1.00;;;;;;6328213;28;20243;-53
2022/10/11 06:16:50;;;;;;;14.27;6.23;;;9.30;1.00;;;;;;6331976;27;20640;-53
2022/10/11 06:19:53;;;;;;;13.03;6.00;;;9.40;1.00;;;;;;6324861;27;20243;-54
2022/10/11 06:22:58;;;;;;;10.77;6.03;;;9.50;1.00;;;;;;6331865;27;20920;-52
2022/10/11 06:26:05;;;;;;;10.17;5.50;;;9.50;1.00;;;;;;6328164;27;20598;-55
2022/10/11 06:29:09;;;;;;;11.20;6.40;;;9.60;1.00;;;;;;6316629;27;20271;-54
2022/10/11 06:32:13;;;;;;;12.23;5.97;;;9.60;1.00;;;;;;6333897;27;20228;-52
2022/10/11 06:35:16;;;;;;;17.20;5.83;;;9.60;1.00;;;;;;6330833;27;20599;-54
2022/10/11 06:38:20;;;;;;;16.67;6.07;;;9.70;1.00;;;;;;6331402;27;20606;-55
2022/10/11 06:41:24;;;;;;;11.30;6.03;;;9.70;1.00;;;;;;6319737;27;20263;-54
2022/10/11 06:44:27;;;;;;;18.00;6.53;;;9.80;1.00;;;;;;6336513;27;20627;-53
2022/10/11 06:47:30;;;;;;;10.97;5.57;;;9.80;1.00;;;;;;6335411;27;20611;-55
2022/10/11 06:50:33;;;;;;;11.97;5.60;;;9.90;1.00;;;;;;6335021;28;20251;-53
2022/10/11 06:53:58;;;;;;;12.47;5.67;;;10.20;1.00;;;;;;6339021;27;20240;-54
2022/10/11 06:57:01;;;;;;;16.03;6.10;;;10.40;1.00;;;;;;6326028;27;20240;-53
2022/10/11 07:00:05;;;;;;;11.07;5.63;;;10.40;1.00;;;;;;6335570;27;20228;-53
2022/10/11 07:03:14;;;;;;;19.30;7.13;;;10.40;1.00;;;;;;6331633;27;20236;-53
2022/10/11 07:06:19;;;;;;;9.60;5.47;;;10.40;1.00;;;;;;6337405;27;20224;-53
2022/10/11 07:09:23;;;;;;;11.10;6.03;;;10.40;1.00;;;;;;6326274;27;20720;-55
2022/10/11 07:12:27;;;;;;;16.43;5.77;;;10.40;1.00;;;;;;6334423;27;20684;-53
2022/10/11 07:15:30;;;;;;;10.87;5.93;;;10.40;1.00;;;;;;6341658;27;20247;-53
2022/10/11 07:18:33;;;;;;;18.00;6.87;;;10.50;1.00;;;;;;6336273;27;20912;-54
2022/10/11 07:21:36;;;;;;;10.30;5.43;;;10.50;1.00;;;;;;6345488;27;20267;-52
2022/10/11 07:24:40;;;;;;;10.10;5.37;;;10.50;1.00;;;;;;6332146;28;20402;-54
2022/10/11 07:27:43;;;;;;;7.80;5.53;;;10.50;1.00;;;;;;6336635;27;20236;-53
2022/10/11 07:30:46;;;;;;;13.10;5.17;;;10.60;1.00;;;;;;6331575;27;20232;-54
2022/10/11 07:33:48;;;;;;;18.43;5.27;;;10.60;1.00;;;;;;6320690;27;20236;-53
2022/10/11 07:36:51;;;;;;;12.43;5.77;;;10.70;1.00;;;;;;6330516;27;20253;-55
2022/10/11 07:39:56;;;;;;;10.03;5.60;;;10.70;1.00;;;;;;6332452;27;20654;-54
2022/10/11 07:42:59;;;;;;;8.77;5.03;;;10.70;1.00;;;;;;6324525;27;20240;-53
2022/10/11 07:46:02;;;;;;;10.53;5.43;;;10.70;1.00;;;;;;6330543;27;20471;-52
2022/10/11 07:49:06;;;;;;;12.97;5.97;;;10.80;1.00;;;;;;6333636;27;20612;-53
2022/10/11 07:52:09;;;;;;;7.93;4.73;;;10.90;1.00;;;;;;6323813;27;20228;-54
2022/10/11 07:55:13;;;;;;;7.23;5.20;;;11.00;1.00;;;;;;6340411;27;20251;-53
2022/10/11 07:58:16;;;;;;;12.93;5.33;;;11.00;1.00;;;;;;6336055;27;20441;-55
2022/10/11 08:01:19;;;;;;;10.23;5.87;;;11.10;1.00;;;;;;6324991;28;20382;-56
2022/10/11 08:04:22;;;;;;;13.57;5.73;;;11.10;1.00;;;;;;6345735;27;20235;-56
2022/10/11 08:07:27;;;;;;;12.37;5.87;;;11.10;1.00;;;;;;6342453;27;20231;-56
2022/10/11 08:10:36;;;;;;;14.60;5.37;;;11.20;1.00;;;;;;6329419;27;20335;-53
2022/10/11 08:13:39;;;;;;;9.10;5.10;;;11.20;1.00;;;;;;6339963;27;20902;-53
2022/10/11 08:16:42;;;;;;;11.20;5.37;;;11.30;1.00;;;;;;6331454;27;20705;-55
2022/10/11 08:19:44;;;;;;;7.70;5.27;;;11.40;1.00;;;;;;6339283;27;20224;-57
2022/10/11 08:22:47;;;;;;;7.93;4.80;;;11.50;1.00;;;;;;6335259;27;20250;-54
2022/10/11 08:25:56;;;;;;;15.20;6.20;;;11.60;1.00;;;;;;6335167;27;20247;-54
2022/10/11 08:29:02;;;;;;;11.20;4.87;;;11.80;1.00;;;;;;6339791;27;20594;-53
2022/10/11 08:32:05;;;;;;;8.27;4.70;;;11.80;1.00;;;;;;6326367;27;20289;-53
2022/10/11 08:35:08;;;;;;;11.03;5.03;;;11.90;1.00;;;;;;6333773;27;20227;-54
2022/10/11 08:38:11;;;;;;;9.07;4.73;;;12.00;1.00;;;;;;6330220;27;20241;-54
2022/10/11 08:41:27;;;;;;;8.03;4.87;;;12.00;1.00;;;;;;6334692;28;20497;-54
2022/10/11 08:44:38;;;;;;;11.13;4.57;;;12.00;1.00;;;;;;6334291;27;20274;-53
2022/10/11 08:48:11;;;;;;;6.67;4.40;;;12.20;1.00;;;;;;6326929;27;20228;-53
2022/10/11 08:51:18;;;;;;;8.53;4.40;;;12.30;1.00;;;;;;6339870;27;20635;-54
2022/10/11 08:54:26;;;;;;;12.07;4.73;;;12.50;1.00;;;;;;6329783;27;20232;-53
2022/10/11 08:57:35;;;;;;;7.70;4.10;;;12.60;1.00;;;;;;6333959;27;20294;-53
2022/10/11 09:00:38;;;;;;;9.13;3.97;;;12.50;1.00;;;;;;6337101;27;20239;-53
2022/10/11 09:03:44;;;;;;;11.13;4.70;;;12.70;1.00;;;;;;6331459;27;20232;-54
2022/10/11 09:06:56;;;;;;;6.23;4.07;;;12.80;1.00;;;;;;6330238;28;20236;-55
2022/10/11 09:10:21;;;;;;;9.40;4.30;;;12.90;1.00;;;;;;6333672;27;20255;-54
2022/10/11 09:13:53;;;;;;;12.60;4.00;;;13.10;1.00;;;;;;6317476;27;20244;-54
2022/10/11 09:17:05;;;;;;;7.80;4.00;;;13.20;1.00;;;;;;6328332;27;20228;-59
2022/10/11 09:20:33;;;;;;;5.77;4.30;;;13.30;1.00;;;;;;6324250;27;20239;-54
2022/10/11 09:23:55;;;;;;;7.17;3.87;;;13.50;1.00;;;;;;6326937;27;20697;-52
2022/10/11 09:27:00;;;;;;;8.37;3.67;;;13.50;1.00;;;;;;6330779;27;20232;-53
2022/10/11 09:30:11;;;;;;;9.37;3.60;;;13.60;1.00;;;;;;6323299;28;20244;-54
2022/10/11 09:33:18;;;;;;;8.50;3.33;;;13.60;1.00;;;;;;6340471;27;20228;-54
2022/10/11 09:36:28;;;;;;;11.30;4.10;;;13.80;1.00;;;;;;6325087;27;20469;-54
2022/10/11 09:39:34;;;;;;;13.80;4.57;;;13.80;1.00;;;;;;6328004;27;20247;-53
2022/10/11 09:42:37;;;;;;;9.83;3.77;;;13.80;1.00;;;;;;6328547;27;20565;-54
2022/10/11 09:45:43;;;;;;;14.67;3.97;;;13.90;1.00;;;;;;6332864;27;20458;-54
2022/10/11 09:48:53;;;;;;;8.80;3.93;;;14.00;1.00;;;;;;6326806;27;20239;-53
2022/10/11 09:51:58;;;;;;;7.83;3.80;;;14.10;1.00;;;;;;6333628;27;20637;-53
2022/10/11 09:55:02;;;;;;;12.37;4.00;;;14.20;1.00;;;;;;6331434;27;20235;-54
2022/10/11 09:58:22;;;;;;;7.87;4.13;;;14.20;1.00;;;;;;6331363;27;20258;-54
2022/10/11 10:01:28;;;;;;;11.73;3.83;;;14.30;1.00;;;;;;6331770;28;20557;-54
2022/10/11 10:04:31;;;;;;;12.33;4.00;;;14.50;1.00;;;;;;6333715;27;20631;-54
2022/10/11 10:07:35;;;;;;;5.20;3.03;;;14.60;1.00;;;;;;6333130;27;20231;-54
2022/10/11 10:10:40;;;;;;;4.73;3.70;;;14.70;1.00;;;;;;6334130;27;20232;-55
2022/10/11 10:13:48;;;;;;;10.03;3.50;;;14.70;1.00;;;;;;6331956;27;20227;-61
2022/10/11 10:17:01;;;;;;;11.40;3.87;;;14.80;1.00;;;;;;6327234;27;20236;-53
2022/10/11 10:20:06;;;;;;;7.33;3.53;;;15.00;1.00;;;;;;6337016;28;20236;-55
2022/10/11 10:23:19;;;;;;;8.50;3.90;;;15.10;1.00;;;;;;6337952;27;20837;-53
2022/10/11 10:26:24;;;;;;;9.70;3.63;;;15.30;1.00;;;;;;6336832;27;20353;-55
2022/10/11 10:29:27;;;;;;;12.70;4.07;;;15.50;1.00;;;;;;6337301;27;20236;-53
2022/10/11 10:32:39;;;;;;;9.37;3.30;;;15.50;1.00;;;;;;6331750;27;20602;-53
2022/10/11 10:35:52;;;;;;;12.33;3.67;;;15.70;1.00;;;;;;6326450;27;20368;-54
2022/10/11 10:39:02;;;;;;;9.53;3.37;;;15.70;1.00;;;;;;6326233;27;20240;-54
2022/10/11 10:42:12;;;;;;;5.13;3.43;;;15.70;1.00;;;;;;6330344;27;20235;-53
2022/10/11 10:45:17;;;;;;;7.93;3.50;;;15.50;1.00;;;;;;6336472;27;20243;-55
2022/10/11 10:48:33;;;;;;;10.10;3.30;;;15.50;1.00;;;;;;6335758;27;20361;-54
2022/10/11 10:52:10;;;;;;;8.30;3.20;;;15.50;1.00;;;;;;6322841;27;20236;-55
2022/10/11 10:55:23;;;;;;;7.03;3.30;;;15.50;1.00;;;;;;6327753;27;20621;-55
2022/10/11 10:58:39;;;;;;;4.47;2.67;;;15.60;1.00;;;;;;6326685;27;20555;-53
2022/10/11 11:01:53;;;;;;;7.53;2.90;;;15.60;1.00;;;;;;6329322;27;20636;-55
2022/10/11 11:05:06;;;;;;;10.23;3.20;;;15.70;1.00;;;;;;6332172;27;20750;-54
2022/10/11 11:08:15;;;;;;;8.17;3.33;;;15.70;1.00;;;;;;6333126;27;20236;-54
2022/10/11 11:11:38;;;;;;;7.93;3.57;;;16.00;1.00;;;;;;6336382;27;20232;-53
2022/10/11 11:14:53;;;;;;;10.23;3.50;;;16.00;1.00;;;;;;6328475;28;20251;-55
2022/10/11 11:18:09;;;;;;;6.40;3.93;;;16.00;1.00;;;;;;6333620;27;20236;-52
2022/10/11 11:21:40;;;;;;;8.97;4.00;;;15.70;1.00;;;;;;6331732;27;20232;-55
2022/10/11 11:24:52;;;;;;;9.20;3.10;;;15.60;1.00;;;;;;6328848;27;20716;-54
2022/10/11 11:28:12;;;;;;;11.03;2.77;;;15.50;1.00;;;;;;6335726;27;20228;-54
2022/10/11 11:31:30;;;;;;;5.77;3.13;;;15.30;1.00;;;;;;6333640;27;20224;-54
2022/10/11 11:34:38;;;;;;;12.27;3.20;;;15.30;1.00;;;;;;6328671;27;20236;-56
2022/10/11 11:37:46;;;;;;;6.50;2.90;;;15.40;1.00;;;;;;6332313;27;21464;-54
2022/10/11 11:40:54;;;;;;;11.63;3.07;;;15.60;1.00;;;;;;6322785;27;20232;-54
2022/10/11 11:44:02;;;;;;;7.93;3.57;;;15.80;1.00;;;;;;6330898;27;20236;-53
2022/10/11 11:47:12;;;;;;;8.47;2.90;;;15.90;1.00;;;;;;6334202;27;20236;-53
2022/10/11 11:50:21;;;;;;;9.17;3.80;;;16.00;1.00;;;;;;6333915;27;20501;-55
2022/10/11 11:53:47;;;;;;;5.57;2.97;;;15.90;1.00;;;;;;6327272;27;20736;-54
2022/10/11 11:56:58;;;;;;;6.47;2.80;;;15.80;1.00;;;;;;6329004;27;20247;-54
2022/10/11 12:00:06;;;;;;;10.47;3.67;;;15.70;1.00;;;;;;6333029;27;20240;-53
2022/10/11 12:03:15;;;;;;;3.80;3.10;;;15.60;1.00;;;;;;6340910;27;20236;-54
2022/10/11 12:06:28;;;;;;;8.37;3.03;;;15.50;1.00;;;;;;6328540;27;20229;-53
2022/10/11 12:09:33;;;;;;;9.07;3.20;;;15.50;1.00;;;;;;6333360;27;20602;-53
2022/10/11 12:12:38;;;;;;;10.17;3.30;;;15.50;1.00;;;;;;6334024;27;20239;-52
2022/10/11 12:15:55;;;;;;;9.77;3.30;;;15.70;1.00;;;;;;6327733;27;20245;-53
2022/10/11 12:19:01;;;;;;;7.73;3.00;;;15.80;1.00;;;;;;6328985;27;20606;-53
2022/10/11 12:22:34;;;;;;;11.40;3.30;;;15.80;1.00;;;;;;6330401;27;20704;-54
2022/10/11 12:25:43;;;;;;;7.13;2.93;;;15.80;1.00;;;;;;6330389;27;20746;-54
2022/10/11 12:29:24;;;;;;;5.10;2.60;;;15.80;1.00;;;;;;6325425;28;20231;-53
2022/10/11 12:32:52;;;;;;;7.63;3.17;;;15.80;1.00;;;;;;6326763;27;20282;-55
2022/10/11 12:36:02;;;;;;;6.03;2.80;;;15.90;1.00;;;;;;6332150;27;20704;-54
2022/10/11 12:39:50;;;;;;;6.20;3.07;;;15.90;1.00;;;;;;6335368;27;20240;-54
2022/10/11 12:43:25;;;;;;;8.47;3.17;;;16.00;1.00;;;;;;6329038;27;20282;-55
2022/10/11 12:47:19;;;;;;;4.73;2.90;;;15.80;1.00;;;;;;6331466;28;20228;-52
2022/10/11 12:50:29;;;;;;;6.23;2.73;;;15.80;1.00;;;;;;6328522;27;20235;-54
2022/10/11 12:53:52;;;;;;;5.33;3.37;;;15.80;1.00;;;;;;6325496;28;20247;-54
2022/10/11 12:57:53;;;;;;;9.10;2.87;;;16.00;1.00;;;;;;6334770;27;20239;-55
2022/10/11 13:01:16;;;;;;;8.03;2.97;;;15.90;1.00;;;;;;6330134;28;20517;-54
2022/10/11 13:04:25;;;;;;;5.03;2.90;;;16.00;1.00;;;;;;6329292;27;20319;-53
2022/10/11 13:07:34;;;;;;;6.10;3.10;;;16.20;1.00;;;;;;6331432;27;20248;-53
2022/10/11 13:10:42;;;;;;;6.93;2.83;;;16.10;1.00;;;;;;6330841;27;20233;-54
2022/10/11 13:13:51;;;;;;;7.10;3.00;;;16.20;1.00;;;;;;6339583;27;20240;-53
2022/10/11 13:17:04;;;;;;;6.30;2.77;;;16.10;1.00;;;;;;6333918;27;20247;-53
2022/10/11 13:20:16;;;;;;;7.67;3.10;;;15.90;1.00;;;;;;6329337;27;20247;-55
2022/10/11 13:23:22;;;;;;;4.50;2.67;;;15.90;1.00;;;;;;6329954;28;20325;-53
2022/10/11 13:26:26;;;;;;;9.37;3.13;;;15.70;1.00;;;;;;6330212;27;20243;-54
2022/10/11 13:29:32;;;;;;;5.83;2.83;;;15.70;1.00;;;;;;6326299;27;20610;-53
2022/10/11 13:32:36;;;;;;;4.63;2.60;;;15.60;1.00;;;;;;6328169;28;20514;-55
2022/10/11 13:35:41;;;;;;;5.80;2.73;;;15.50;1.00;;;;;;6329441;27;20232;-55
2022/10/11 13:38:52;;;;;;;3.40;2.87;;;15.60;1.00;;;;;;6335522;27;20241;-54
2022/10/11 13:41:56;;;;;;;10.40;3.60;;;15.60;1.00;;;;;;6331896;27;20236;-54
2022/10/11 13:45:00;;;;;;;6.30;3.27;;;15.60;1.00;;;;;;6326849;27;20232;-54
2022/10/11 13:48:03;;;;;;;6.90;3.10;;;15.70;1.00;;;;;;6332535;27;20510;-53
2022/10/11 13:51:12;;;;;;;5.00;2.63;;;15.80;1.00;;;;;;6334593;27;20236;-54
2022/10/11 13:54:14;;;;;;;6.73;3.33;;;15.80;1.00;;;;;;6330126;28;20236;-55
2022/10/11 13:57:17;;;;;;;6.00;3.03;;;15.80;1.00;;;;;;6331805;28;20754;-55
2022/10/11 14:00:27;;;;;;;4.37;2.80;;;15.80;1.00;;;;;;6326585;27;20665;-55
2022/10/11 14:03:38;;;;;;;8.03;2.77;;;15.70;1.00;;;;;;6327636;27;20235;-54
2022/10/11 14:06:46;;;;;;;4.17;3.17;;;15.80;1.00;;;;;;6332882;27;20258;-52
2022/10/11 14:09:49;;;;;;;2.80;2.60;;;15.90;1.00;;;;;;6325249;27;20472;-54
2022/10/11 14:13:01;;;;;;;7.73;3.33;;;15.90;1.00;;;;;;6328240;28;20650;-53
2022/10/11 14:16:07;;;;;;;6.63;3.23;;;15.90;1.00;;;;;;6331260;28;20228;-53
2022/10/11 14:19:11;;;;;;;4.43;2.60;;;15.90;1.00;;;;;;6325180;28;20307;-54
2022/10/11 14:22:17;;;;;;;4.97;2.73;;;15.90;1.00;;;;;;6331555;28;20307;-55
2022/10/11 14:25:20;;;;;;;9.03;2.67;;;15.80;1.00;;;;;;6327379;27;20232;-54
2022/10/11 14:28:23;;;;;;;3.23;2.60;;;15.70;1.00;;;;;;6330613;27;20232;-54
2022/10/11 14:31:26;;;;;;;5.47;2.60;;;15.60;1.00;;;;;;6325836;27;20646;-53
2022/10/11 14:34:29;;;;;;;6.37;2.67;;;15.50;1.00;;;;;;6325634;27;20381;-54
2022/10/11 14:37:33;;;;;;;4.47;2.40;;;15.50;1.00;;;;;;6327801;27;20228;-54
2022/10/11 14:40:36;;;;;;;5.27;2.60;;;15.40;1.00;;;;;;6326456;28;20397;-53
2022/10/11 14:43:39;;;;;;;7.30;3.23;;;15.40;1.00;;;;;;6327926;28;20247;-55
2022/10/11 14:46:43;;;;;;;4.70;2.87;;;15.30;1.00;;;;;;6328965;27;20608;-55
2022/10/11 14:49:46;;;;;;;5.37;2.93;;;15.30;1.00;;;;;;6332809;27;20228;-54
2022/10/11 14:52:50;;;;;;;6.50;2.83;;;15.30;1.00;;;;;;6329867;27;20635;-54
2022/10/11 14:55:53;;;;;;;5.33;2.60;;;15.20;1.00;;;;;;6330692;27;20250;-57
2022/10/11 14:58:56;;;;;;;7.03;2.87;;;15.10;1.00;;;;;;6337191;27;20763;-53
2022/10/11 15:01:59;;;;;;;7.77;3.00;;;15.10;1.00;;;;;;6334411;27;20239;-55
2022/10/11 15:05:02;;;;;;;4.30;3.00;;;14.90;1.00;;;;;;6330839;27;20231;-53
2022/10/11 15:08:07;;;;;;;4.47;2.73;;;14.90;1.00;;;;;;6337427;27;20236;-55
2022/10/11 15:11:10;;;;;;;6.00;2.67;;;14.80;1.00;;;;;;6331920;27;20236;-53
2022/10/11 15:14:13;;;;;;;3.47;2.53;;;14.70;1.00;;;;;;6323754;27;20228;-53
2022/10/11 15:17:16;;;;;;;6.53;2.47;;;14.70;1.00;;;;;;6332772;27;20345;-54
2022/10/11 15:20:24;;;;;;;3.90;2.60;;;14.60;1.00;;;;;;6326940;27;20251;-52
2022/10/11 15:23:28;;;;;;;4.97;2.77;;;14.50;1.00;;;;;;6330367;27;20290;-55
2022/10/11 15:26:32;;;;;;;7.33;3.60;;;14.40;1.00;;;;;;6334232;27;20239;-55
2022/10/11 15:29:35;;;;;;;5.73;2.93;;;14.30;1.00;;;;;;6333755;27;20232;-54
2022/10/11 15:32:38;;;;;;;6.87;3.20;;;14.30;1.00;;;;;;6331418;27;20459;-53
2022/10/11 15:35:41;;;;;;;5.37;3.07;;;14.20;1.00;;;;;;6328231;28;20233;-53
2022/10/11 15:38:45;;;;;;;4.57;3.10;;;14.20;1.00;;;;;;6333494;27;20232;-55
2022/10/11 15:41:48;;;;;;;5.27;3.20;;;14.10;1.00;;;;;;6327316;27;20313;-55
2022/10/11 15:44:51;;;;;;;4.60;3.00;;;14.00;1.00;;;;;;6331137;27;20251;-55
2022/10/11 15:47:54;;;;;;;4.37;2.60;;;14.00;1.00;;;;;;6332359;27;20228;-55
2022/10/11 15:50:57;;;;;;;7.13;2.87;;;13.90;1.00;;;;;;6329841;27;20754;-54
2022/10/11 15:54:01;;;;;;;2.73;2.50;;;13.80;1.00;;;;;;6336625;27;20568;-53
2022/10/11 15:57:04;;;;;;;4.00;2.67;;;13.70;1.00;;;;;;6335026;27;20405;-53
2022/10/11 16:00:08;;;;;;;2.67;2.47;;;13.50;1.00;;;;;;6342003;27;20622;-56
2022/10/11 16:03:12;;;;;;;4.07;2.90;;;13.40;1.00;;;;;;6331118;27;20251;-54
2022/10/11 16:06:15;;;;;;;4.67;2.93;;;13.30;1.00;;;;;;6331756;27;20262;-56
2022/10/11 16:09:19;;;;;;;7.20;3.63;;;13.20;1.00;;;;;;6334270;27;20629;-55
2022/10/11 16:12:22;;;;;;;4.80;3.17;;;13.10;1.00;;;;;;6337152;27;20247;-53
2022/10/11 16:15:25;;;;;;;3.07;2.73;;;13.00;1.00;;;;;;6342484;27;20239;-53
2022/10/11 16:18:28;;;;;;;7.40;3.63;;;12.90;1.00;;;;;;6336546;27;20227;-54
2022/10/11 16:21:37;;;;;;;10.33;4.20;;;12.80;1.00;;;;;;6325705;27;20237;-54
2022/10/11 16:24:41;;;;;;;4.27;3.43;;;12.70;1.00;;;;;;6334579;27;20228;-54
2022/10/11 16:27:45;;;;;;;6.53;3.60;;;12.60;1.00;;;;;;6335287;27;20289;-54